Time;durP1;ratioP1;P1;durP2;ratioP2;P2;SDS_P1;SDS_P2;PMS_P1;PMS_P2;Temp;Humidity;BMP_temperature;BMP_pressure;BME280_temperature;BME280_humidity;BME280_pressure;Samples;Min_cycle;Max_cycle;Signal;HPM_P1;HPM_P2
2021/05/16 00:00:16;;;;;;;1.08;0.68;;;10.60;83.90;;;;;;5019072;28;20032;-77
2021/05/16 00:02:42;;;;;;;1.30;0.70;;;10.60;83.90;;;;;;4983529;28;20053;-77
2021/05/16 00:05:08;;;;;;;0.50;0.50;;;10.60;83.90;;;;;;5002299;28;20029;-75
2021/05/16 00:07:35;;;;;;;1.40;0.80;;;10.60;83.90;;;;;;5047279;28;20033;-76
2021/05/16 00:10:01;;;;;;;0.50;0.50;;;10.60;83.90;;;;;;5025671;28;20042;-75
2021/05/16 00:12:26;;;;;;;1.23;0.65;;;10.60;83.90;;;;;;5015944;28;20044;-74
2021/05/16 00:14:52;;;;;;;0.93;0.60;;;10.60;84.00;;;;;;5037645;28;20042;-75
2021/05/16 00:17:18;;;;;;;0.65;0.65;;;10.60;83.90;;;;;;5040295;28;20460;-76
2021/05/16 00:19:45;;;;;;;0.90;0.68;;;10.70;84.10;;;;;;5045510;28;20569;-75
2021/05/16 00:22:11;;;;;;;1.30;0.65;;;10.60;84.00;;;;;;5027743;28;20045;-76
2021/05/16 00:24:36;;;;;;;1.58;0.52;;;10.70;84.10;;;;;;5045143;28;20033;-75
2021/05/16 00:27:02;;;;;;;1.02;0.63;;;10.60;84.10;;;;;;5026492;28;20038;-75
2021/05/16 00:29:28;;;;;;;1.58;0.88;;;10.70;84.10;;;;;;5025361;28;20084;-76
2021/05/16 00:31:53;;;;;;;1.17;0.70;;;10.60;84.10;;;;;;5040676;28;20042;-76
2021/05/16 00:34:20;;;;;;;0.90;0.57;;;10.60;84.20;;;;;;5044206;28;20041;-75
2021/05/16 00:36:46;;;;;;;1.20;0.60;;;10.60;84.30;;;;;;5025349;28;20092;-75
2021/05/16 00:39:11;;;;;;;2.17;0.70;;;10.60;84.30;;;;;;5027163;28;20040;-75
2021/05/16 00:41:37;;;;;;;1.52;1.00;;;10.70;84.40;;;;;;5026714;28;20045;-75
2021/05/16 00:44:03;;;;;;;0.85;0.75;;;10.60;84.30;;;;;;5011878;28;20422;-75
2021/05/16 00:46:29;;;;;;;0.73;0.60;;;10.70;84.40;;;;;;5011300;28;20040;-75
2021/05/16 00:48:55;;;;;;;0.93;0.60;;;10.70;84.40;;;;;;5047222;28;20088;-75
2021/05/16 00:51:20;;;;;;;1.65;0.70;;;10.70;84.40;;;;;;5028998;28;20033;-76
2021/05/16 00:53:46;;;;;;;1.42;0.77;;;10.60;84.40;;;;;;5011469;28;20034;-76
2021/05/16 00:56:12;;;;;;;2.25;0.88;;;10.70;84.40;;;;;;5047713;28;20037;-76
2021/05/16 00:58:38;;;;;;;1.15;0.75;;;10.70;84.40;;;;;;5047316;28;20097;-75
2021/05/16 01:01:08;;;;;;;1.30;0.68;;;10.70;84.40;;;;;;5045098;28;20099;-76
2021/05/16 01:03:34;;;;;;;2.20;0.63;;;10.70;84.40;;;;;;5025791;28;20052;-77
2021/05/16 01:06:00;;;;;;;1.83;0.70;;;10.70;84.50;;;;;;5006322;28;20052;-75
2021/05/16 01:08:26;;;;;;;0.60;0.50;;;10.80;84.60;;;;;;5007755;28;20506;-77
2021/05/16 01:10:52;;;;;;;1.50;0.73;;;10.70;85.20;;;;;;5025802;28;20046;-76
2021/05/16 01:13:18;;;;;;;1.13;0.88;;;10.70;84.60;;;;;;5044318;28;20033;-75
2021/05/16 01:15:45;;;;;;;1.23;0.60;;;10.70;84.60;;;;;;5025635;28;20079;-75
2021/05/16 01:18:12;;;;;;;2.25;0.75;;;10.80;84.70;;;;;;5026512;28;20045;-76
2021/05/16 01:20:44;;;;;;;1.75;0.70;;;10.70;84.60;;;;;;5006683;28;20037;-76
2021/05/16 01:23:23;;;;;;;2.72;0.80;;;10.80;84.70;;;;;;5023368;28;20117;-77
2021/05/16 01:25:49;;;;;;;2.67;1.00;;;10.80;84.80;;;;;;5021983;28;20387;-76
2021/05/16 01:28:16;;;;;;;1.17;0.68;;;10.70;84.80;;;;;;5020805;28;20045;-76
2021/05/16 01:30:44;;;;;;;0.98;0.63;;;10.80;84.80;;;;;;5022594;28;20045;-75
2021/05/16 01:33:13;;;;;;;1.58;0.90;;;10.70;84.80;;;;;;5018510;28;20093;-76
2021/05/16 01:35:39;;;;;;;1.48;0.80;;;10.70;84.80;;;;;;5036349;28;20037;-75
2021/05/16 01:38:07;;;;;;;1.70;0.70;;;10.80;84.90;;;;;;5016512;28;20124;-76
2021/05/16 01:40:37;;;;;;;0.93;0.60;;;10.70;84.90;;;;;;4999302;28;20033;-76
2021/05/16 01:43:02;;;;;;;0.82;0.45;;;10.70;84.90;;;;;;4999980;28;20116;-76
2021/05/16 01:45:29;;;;;;;1.33;0.65;;;10.80;85.10;;;;;;5036290;28;20053;-76
2021/05/16 01:47:57;;;;;;;1.75;0.68;;;10.80;85.10;;;;;;5037879;28;20029;-75
2021/05/16 01:50:28;;;;;;;2.25;0.80;;;10.70;85.00;;;;;;5021030;28;20053;-75
2021/05/16 01:52:54;;;;;;;;;;;10.70;85.00;;;;;;5036246;28;20053;-75
2021/05/16 01:55:20;;;;;;;2.95;0.70;;;10.80;85.10;;;;;;5018822;28;19921;-76
2021/05/16 01:57:46;;;;;;;0.88;0.60;;;10.80;85.00;;;;;;5016798;28;20096;-77
2021/05/16 02:00:20;;;;;;;2.17;0.80;;;10.70;85.00;;;;;;5016283;28;20045;-76
2021/05/16 02:02:47;;;;;;;2.00;0.68;;;10.70;85.10;;;;;;5017101;28;20062;-75
2021/05/16 02:05:13;;;;;;;2.88;0.80;;;10.70;85.10;;;;;;5017641;28;20037;-75
2021/05/16 02:07:39;;;;;;;1.73;0.65;;;10.70;85.10;;;;;;5016303;28;20511;-75
2021/05/16 02:10:05;;;;;;;2.15;0.80;;;10.70;85.10;;;;;;5015853;28;20034;-75
2021/05/16 02:12:31;;;;;;;1.27;0.60;;;10.70;85.20;;;;;;5016650;28;20026;-75
2021/05/16 02:14:57;;;;;;;0.47;0.47;;;10.70;85.20;;;;;;5015536;28;20514;-75
2021/05/16 02:17:23;;;;;;;2.30;0.75;;;10.70;85.20;;;;;;5032841;28;20113;-75
2021/05/16 02:19:49;;;;;;;2.40;0.75;;;10.70;85.20;;;;;;5032042;28;20392;-75
2021/05/16 02:22:15;;;;;;;1.63;0.63;;;10.70;85.30;;;;;;4998426;28;20487;-75
2021/05/16 02:24:43;;;;;;;2.00;0.60;;;10.80;85.30;;;;;;5014941;28;20034;-75
2021/05/16 02:27:09;;;;;;;1.65;0.60;;;10.70;85.30;;;;;;5015134;28;20069;-76
2021/05/16 02:29:35;;;;;;;0.77;0.65;;;10.70;85.30;;;;;;5013034;28;20042;-75
2021/05/16 02:32:00;;;;;;;1.88;0.68;;;10.70;85.30;;;;;;5032182;28;20036;-75
2021/05/16 02:34:27;;;;;;;2.92;1.17;;;10.80;85.40;;;;;;5014379;28;20484;-76
2021/05/16 02:36:53;;;;;;;1.48;0.73;;;10.70;85.30;;;;;;5013762;28;20045;-75
2021/05/16 02:39:19;;;;;;;3.25;0.98;;;10.70;85.40;;;;;;4997345;28;20075;-75
2021/05/16 02:41:45;;;;;;;1.80;0.90;;;10.70;85.40;;;;;;5031260;28;20177;-76
2021/05/16 02:44:10;;;;;;;3.42;1.05;;;10.80;85.50;;;;;;5013552;28;20037;-75
2021/05/16 02:46:38;;;;;;;2.38;0.90;;;10.70;85.40;;;;;;5031545;28;20057;-75
2021/05/16 02:49:03;;;;;;;2.25;0.90;;;10.70;85.40;;;;;;5014367;28;20077;-75
2021/05/16 02:51:29;;;;;;;3.13;0.93;;;10.70;86.10;;;;;;5031311;28;20127;-76
2021/05/16 02:53:55;;;;;;;0.88;0.60;;;10.80;85.50;;;;;;5031699;28;20049;-75
2021/05/16 02:56:21;;;;;;;2.20;0.88;;;10.70;85.50;;;;;;5016581;28;20049;-75
2021/05/16 02:58:46;;;;;;;0.55;0.50;;;10.70;85.50;;;;;;4999741;28;20099;-75
2021/05/16 03:01:12;;;;;;;1.38;0.70;;;10.70;85.50;;;;;;5034259;28;20416;-76
2021/05/16 03:03:39;;;;;;;3.35;1.08;;;10.70;85.50;;;;;;5034427;28;20435;-75
2021/05/16 03:06:05;;;;;;;1.52;0.65;;;10.60;85.50;;;;;;4997549;28;20038;-75
2021/05/16 03:08:31;;;;;;;2.35;0.88;;;10.70;85.60;;;;;;5016884;28;20064;-75
2021/05/16 03:10:57;;;;;;;1.85;0.90;;;10.70;85.60;;;;;;5016503;28;20475;-75
2021/05/16 03:13:23;;;;;;;2.78;0.98;;;10.70;85.50;;;;;;5016442;28;20073;-75
2021/05/16 03:15:49;;;;;;;2.45;0.90;;;10.70;85.60;;;;;;5034143;28;20059;-75
2021/05/16 03:18:14;;;;;;;2.90;1.10;;;10.70;85.50;;;;;;5034536;28;20129;-75
2021/05/16 03:20:40;;;;;;;1.77;0.77;;;10.70;85.50;;;;;;5016688;28;20075;-75
2021/05/16 03:23:06;;;;;;;5.05;0.90;;;10.60;85.50;;;;;;5034569;28;20559;-75
2021/05/16 03:25:35;;;;;;;1.02;0.60;;;10.70;85.50;;;;;;5034687;28;20503;-75
2021/05/16 03:28:01;;;;;;;1.17;1.05;;;10.70;85.50;;;;;;5034785;28;20033;-75
2021/05/16 03:30:27;;;;;;;1.80;0.70;;;10.70;85.50;;;;;;5034580;28;20068;-75
2021/05/16 03:32:53;;;;;;;2.13;0.70;;;10.70;85.60;;;;;;5035715;28;20029;-75
2021/05/16 03:35:19;;;;;;;3.05;1.00;;;10.70;85.50;;;;;;5016394;28;20029;-75
2021/05/16 03:37:45;;;;;;;2.22;0.88;;;10.60;85.50;;;;;;5016186;28;20923;-75
2021/05/16 03:40:11;;;;;;;2.17;0.80;;;10.70;85.60;;;;;;5033652;28;20124;-75
2021/05/16 03:42:37;;;;;;;1.75;0.90;;;10.60;85.50;;;;;;5016118;28;20476;-75
2021/05/16 03:45:05;;;;;;;2.42;1.00;;;10.60;85.50;;;;;;5000005;28;20052;-75
2021/05/16 03:47:31;;;;;;;2.05;0.98;;;10.70;85.60;;;;;;5016728;28;20530;-76
2021/05/16 03:49:56;;;;;;;3.13;0.98;;;10.70;85.60;;;;;;5015981;28;20049;-75
2021/05/16 03:52:22;;;;;;;2.67;0.80;;;10.70;85.60;;;;;;5016785;28;20507;-75
2021/05/16 03:54:49;;;;;;;1.70;0.85;;;10.70;85.60;;;;;;5016826;28;20049;-75
2021/05/16 03:57:16;;;;;;;2.55;1.10;;;10.60;85.50;;;;;;5017107;28;20042;-75
2021/05/16 03:59:42;;;;;;;2.25;1.20;;;10.70;85.60;;;;;;5035077;28;20049;-77
2021/05/16 04:02:08;;;;;;;2.30;1.00;;;10.70;85.50;;;;;;5017043;28;20479;-76
2021/05/16 04:04:34;;;;;;;3.75;1.27;;;10.70;85.50;;;;;;4985905;28;20849;-76
2021/05/16 04:07:00;;;;;;;2.63;1.05;;;10.60;85.50;;;;;;5019126;28;20034;-75
2021/05/16 04:09:26;;;;;;;1.85;1.10;;;10.70;85.50;;;;;;5017968;28;20086;-76
2021/05/16 04:11:52;;;;;;;2.53;1.23;;;10.70;85.50;;;;;;5017024;28;20128;-76
2021/05/16 04:14:20;;;;;;;2.88;1.08;;;10.60;85.40;;;;;;5034057;28;20037;-76
2021/05/16 04:16:46;;;;;;;4.00;1.25;;;10.60;85.40;;;;;;5016221;28;20518;-75
2021/05/16 04:19:12;;;;;;;3.55;1.63;;;10.60;85.50;;;;;;5034840;28;20045;-75
2021/05/16 04:21:38;;;;;;;4.10;1.30;;;10.60;85.50;;;;;;5018244;28;20037;-75
2021/05/16 04:24:04;;;;;;;4.20;1.73;;;10.60;85.50;;;;;;5016521;28;20049;-75
2021/05/16 04:26:30;;;;;;;3.35;1.23;;;10.60;85.50;;;;;;5016308;28;20041;-76
2021/05/16 04:28:56;;;;;;;3.08;1.40;;;10.60;85.50;;;;;;5016725;28;20566;-76
2021/05/16 04:31:21;;;;;;;3.42;1.33;;;10.60;85.50;;;;;;5033961;28;20499;-76
2021/05/16 04:33:47;;;;;;;2.15;1.27;;;10.70;85.50;;;;;;5019916;28;20080;-76
2021/05/16 04:36:13;;;;;;;3.17;1.40;;;10.70;85.50;;;;;;5036327;28;20069;-76
2021/05/16 04:38:39;;;;;;;4.40;1.40;;;10.60;85.50;;;;;;5034833;28;20526;-75
2021/05/16 04:41:04;;;;;;;2.00;1.30;;;10.70;85.50;;;;;;5015828;28;20529;-75
2021/05/16 04:43:30;;;;;;;4.60;1.42;;;10.70;85.50;;;;;;5033748;28;20041;-76
2021/05/16 04:45:56;;;;;;;3.80;1.23;;;10.70;85.40;;;;;;4999661;28;20395;-75
2021/05/16 04:48:21;;;;;;;3.22;1.58;;;10.70;85.40;;;;;;5016042;28;20066;-75
2021/05/16 04:50:47;;;;;;;3.75;1.40;;;10.70;85.40;;;;;;5015802;28;20034;-76
2021/05/16 04:53:13;;;;;;;3.60;1.20;;;10.70;85.40;;;;;;5016112;28;20038;-76
2021/05/16 04:55:39;;;;;;;4.28;1.50;;;10.70;85.40;;;;;;5015785;28;20395;-77
2021/05/16 04:58:04;;;;;;;2.72;1.42;;;10.70;85.40;;;;;;5016458;28;20045;-75
2021/05/16 05:00:30;;;;;;;3.13;1.15;;;10.70;85.40;;;;;;5016405;28;20037;-75
2021/05/16 05:02:57;;;;;;;2.63;1.30;;;10.80;85.50;;;;;;5015580;28;20045;-75
2021/05/16 05:05:23;;;;;;;2.05;1.38;;;10.70;85.40;;;;;;5015243;28;21293;-75
2021/05/16 05:07:49;;;;;;;3.40;1.40;;;10.80;85.40;;;;;;5015723;28;20120;-75
2021/05/16 05:10:14;;;;;;;3.70;1.65;;;10.70;85.30;;;;;;5032839;28;20395;-75
2021/05/16 05:12:40;;;;;;;2.78;1.40;;;10.80;85.30;;;;;;5033094;28;20029;-75
2021/05/16 05:15:07;;;;;;;1.60;1.20;;;10.70;85.20;;;;;;4999685;28;20060;-75
2021/05/16 05:17:32;;;;;;;3.75;1.55;;;10.70;85.30;;;;;;5016121;28;20467;-76
2021/05/16 05:19:58;;;;;;;3.35;1.20;;;10.80;85.30;;;;;;4997725;28;20081;-76
2021/05/16 05:22:24;;;;;;;4.18;1.45;;;10.80;85.80;;;;;;5014691;28;20137;-76
2021/05/16 05:24:50;;;;;;;3.33;1.50;;;10.80;85.10;;;;;;5014537;28;20454;-75
2021/05/16 05:27:15;;;;;;;2.97;1.25;;;10.90;85.20;;;;;;5032380;28;20602;-75
2021/05/16 05:29:41;;;;;;;2.75;1.30;;;10.90;85.10;;;;;;4998383;28;20041;-75
2021/05/16 05:32:07;;;;;;;1.85;1.30;;;10.90;85.10;;;;;;4998287;28;20049;-75
2021/05/16 05:34:33;;;;;;;6.80;1.70;;;10.90;85.10;;;;;;5014334;28;20432;-75
2021/05/16 05:36:59;;;;;;;3.80;1.70;;;10.90;85.10;;;;;;5031853;28;20499;-75
2021/05/16 05:39:25;;;;;;;3.08;1.45;;;10.90;85.10;;;;;;5014741;28;20053;-75
2021/05/16 05:41:50;;;;;;;2.35;1.45;;;10.80;85.10;;;;;;5015017;28;20384;-75
2021/05/16 05:44:16;;;;;;;2.88;1.17;;;10.90;85.20;;;;;;5032837;28;20038;-75
2021/05/16 05:46:42;;;;;;;2.63;1.30;;;10.90;85.10;;;;;;4999811;28;20034;-76
2021/05/16 05:49:08;;;;;;;2.20;1.30;;;10.90;85.10;;;;;;5015716;28;20417;-77
2021/05/16 05:51:33;;;;;;;3.50;1.50;;;10.90;85.10;;;;;;5032981;28;20029;-76
2021/05/16 05:53:59;;;;;;;2.63;1.50;;;10.90;85.00;;;;;;5033324;28;20092;-76
2021/05/16 05:56:25;;;;;;;3.13;1.65;;;10.90;85.00;;;;;;5032667;28;20037;-75
2021/05/16 05:58:51;;;;;;;3.80;1.98;;;10.90;85.00;;;;;;5017327;28;20527;-77
2021/05/16 06:01:17;;;;;;;3.75;1.80;;;11.00;85.00;;;;;;5040332;28;20046;-75
2021/05/16 06:03:45;;;;;;;3.55;1.70;;;11.00;84.90;;;;;;5018117;28;20105;-75
2021/05/16 06:06:11;;;;;;;3.40;1.40;;;11.00;84.90;;;;;;5020427;28;20029;-75
2021/05/16 06:08:38;;;;;;;2.42;1.33;;;11.00;84.90;;;;;;5021419;28;20103;-76
2021/05/16 06:11:04;;;;;;;3.40;1.40;;;11.00;84.90;;;;;;5043389;28;20109;-77
2021/05/16 06:13:30;;;;;;;3.53;1.35;;;11.10;84.90;;;;;;5042844;28;20865;-77
2021/05/16 06:15:55;;;;;;;4.50;1.80;;;11.10;84.80;;;;;;5025213;28;20128;-77
2021/05/16 06:18:23;;;;;;;3.60;1.70;;;11.20;84.80;;;;;;5044405;28;20444;-77
2021/05/16 06:20:49;;;;;;;5.22;1.73;;;11.20;84.70;;;;;;5025437;28;20828;-77
2021/05/16 06:23:17;;;;;;;4.05;2.03;;;11.20;84.60;;;;;;5026924;28;20100;-77
2021/05/16 06:25:43;;;;;;;2.88;1.48;;;11.30;84.60;;;;;;5042790;28;20076;-77
2021/05/16 06:28:09;;;;;;;4.40;1.90;;;11.30;84.60;;;;;;5006281;28;20045;-77
2021/05/16 06:30:34;;;;;;;4.90;1.50;;;11.30;84.60;;;;;;5044268;28;20057;-77
2021/05/16 06:33:01;;;;;;;2.40;1.50;;;11.30;84.50;;;;;;5026470;28;20037;-77
2021/05/16 06:35:27;;;;;;;4.13;1.88;;;11.30;84.60;;;;;;5022301;28;20030;-76
2021/05/16 06:37:52;;;;;;;3.38;1.40;;;11.30;84.60;;;;;;4993869;28;20053;-77
2021/05/16 06:40:18;;;;;;;4.07;1.60;;;11.40;84.50;;;;;;5042775;28;20036;-77
2021/05/16 06:42:44;;;;;;;2.17;1.45;;;11.40;84.50;;;;;;5026244;28;20037;-78
2021/05/16 06:45:12;;;;;;;2.13;1.30;;;11.40;84.40;;;;;;5044564;28;20053;-78
2021/05/16 06:47:38;;;;;;;2.75;1.38;;;11.40;84.30;;;;;;5028734;28;20459;-77
2021/05/16 06:50:06;;;;;;;3.78;1.80;;;11.50;84.40;;;;;;5024339;28;20055;-77
2021/05/16 06:52:32;;;;;;;4.43;1.48;;;11.60;84.40;;;;;;5023996;28;20033;-77
2021/05/16 06:54:57;;;;;;;3.60;1.27;;;11.70;84.20;;;;;;5043612;28;20044;-77
2021/05/16 06:57:23;;;;;;;4.03;1.27;;;11.70;83.90;;;;;;5023204;28;20420;-78
2021/05/16 06:59:49;;;;;;;2.88;1.50;;;11.70;83.70;;;;;;5025199;28;20053;-77
2021/05/16 07:02:15;;;;;;;2.85;1.48;;;11.90;83.80;;;;;;5024086;28;20077;-77
2021/05/16 07:04:42;;;;;;;3.17;1.45;;;11.90;83.80;;;;;;5006523;28;20057;-77
2021/05/16 07:07:10;;;;;;;3.53;1.60;;;11.90;83.70;;;;;;5038073;28;20080;-78
2021/05/16 07:09:36;;;;;;;3.25;1.42;;;12.00;83.40;;;;;;4986873;28;20052;-77
2021/05/16 07:12:01;;;;;;;2.85;1.35;;;12.10;83.50;;;;;;5038684;28;20080;-77
2021/05/16 07:14:27;;;;;;;3.17;1.42;;;12.20;83.00;;;;;;5020264;28;20065;-77
2021/05/16 07:16:53;;;;;;;3.33;1.40;;;12.30;82.90;;;;;;5037545;28;20056;-76
2021/05/16 07:19:19;;;;;;;1.60;1.10;;;12.20;82.90;;;;;;5017950;28;20504;-77
2021/05/16 07:21:44;;;;;;;1.83;1.20;;;12.20;83.10;;;;;;5036938;28;20034;-77
2021/05/16 07:24:10;;;;;;;2.40;1.17;;;12.20;83.30;;;;;;5017478;28;20038;-75
2021/05/16 07:26:36;;;;;;;3.75;1.25;;;12.20;83.20;;;;;;5002077;28;20041;-77
2021/05/16 07:29:02;;;;;;;3.65;1.30;;;12.20;83.20;;;;;;5001680;28;20451;-77
2021/05/16 07:31:28;;;;;;;4.05;1.50;;;12.20;83.40;;;;;;5018311;28;20073;-78
2021/05/16 07:33:54;;;;;;;3.65;1.50;;;12.10;83.40;;;;;;5016938;28;20046;-77
2021/05/16 07:36:19;;;;;;;3.85;1.70;;;12.10;83.50;;;;;;5017659;28;20033;-76
2021/05/16 07:38:45;;;;;;;1.98;1.27;;;12.10;83.60;;;;;;5019853;28;20045;-77
2021/05/16 07:41:12;;;;;;;2.50;1.40;;;12.00;83.70;;;;;;5001477;28;20045;-77
2021/05/16 07:43:37;;;;;;;3.60;1.30;;;12.00;83.80;;;;;;5000540;28;20064;-76
2021/05/16 07:46:03;;;;;;;4.68;1.73;;;12.00;83.80;;;;;;5035077;28;20029;-76
2021/05/16 07:48:29;;;;;;;3.75;1.48;;;12.00;83.70;;;;;;5017000;28;20395;-76
2021/05/16 07:50:58;;;;;;;3.00;1.38;;;12.00;83.70;;;;;;5018350;28;20387;-77
2021/05/16 07:53:24;;;;;;;3.88;1.55;;;12.00;83.70;;;;;;5016652;28;20041;-77
2021/05/16 07:55:50;;;;;;;2.58;1.42;;;12.10;83.60;;;;;;5019353;28;20041;-77
2021/05/16 07:58:16;;;;;;;3.78;1.80;;;12.20;83.40;;;;;;5016721;28;20049;-77
2021/05/16 08:00:42;;;;;;;3.35;1.77;;;12.20;83.20;;;;;;5017030;28;20057;-77
2021/05/16 08:03:08;;;;;;;3.72;1.90;;;12.30;83.00;;;;;;5020264;28;20033;-77
2021/05/16 08:05:34;;;;;;;4.75;2.22;;;12.30;83.00;;;;;;5035362;28;20550;-77
2021/05/16 08:08:00;;;;;;;4.18;2.10;;;12.20;83.00;;;;;;5017111;28;20053;-76
2021/05/16 08:10:27;;;;;;;3.55;2.10;;;12.20;83.10;;;;;;5016822;28;20480;-77
2021/05/16 08:12:54;;;;;;;4.53;2.25;;;12.30;83.10;;;;;;5000378;28;20029;-77
2021/05/16 08:15:21;;;;;;;5.18;2.47;;;12.30;82.80;;;;;;5034805;28;20026;-76
2021/05/16 08:17:47;;;;;;;5.15;2.58;;;12.30;82.60;;;;;;5016917;28;20088;-76
2021/05/16 08:20:13;;;;;;;3.80;2.03;;;12.40;82.70;;;;;;5016968;28;20041;-77
2021/05/16 08:22:39;;;;;;;3.35;1.95;;;12.40;82.70;;;;;;5036701;28;20459;-77
2021/05/16 08:25:08;;;;;;;6.28;2.50;;;12.50;82.50;;;;;;5021035;28;20047;-77
2021/05/16 08:27:33;;;;;;;3.33;1.90;;;12.60;82.50;;;;;;5035457;28;20036;-76
2021/05/16 08:29:59;;;;;;;4.35;2.25;;;12.70;82.90;;;;;;5033417;28;20430;-77
2021/05/16 08:32:25;;;;;;;4.97;2.30;;;12.60;82.00;;;;;;5015999;28;20386;-77
2021/05/16 08:34:51;;;;;;;3.90;1.90;;;12.70;82.00;;;;;;5015311;28;20095;-75
2021/05/16 08:37:18;;;;;;;3.83;1.83;;;12.60;82.10;;;;;;5015116;28;20115;-76
2021/05/16 08:39:44;;;;;;;6.22;2.05;;;12.60;82.20;;;;;;5032697;28;20076;-77
2021/05/16 08:42:11;;;;;;;2.50;1.77;;;12.70;82.30;;;;;;4982449;28;20045;-75
2021/05/16 08:44:39;;;;;;;3.35;1.83;;;12.80;82.30;;;;;;5015063;28;20033;-75
2021/05/16 08:47:06;;;;;;;3.50;1.90;;;12.80;82.20;;;;;;5014865;28;20038;-76
2021/05/16 08:49:33;;;;;;;2.72;1.70;;;12.90;82.20;;;;;;5032571;28;20054;-76
2021/05/16 08:51:58;;;;;;;3.03;1.85;;;12.80;82.00;;;;;;5032575;28;20051;-75
2021/05/16 08:54:24;;;;;;;4.07;1.83;;;12.90;82.10;;;;;;5032591;28;20045;-77
2021/05/16 08:56:53;;;;;;;2.88;1.65;;;12.90;82.20;;;;;;5033078;28;20037;-75
2021/05/16 08:59:20;;;;;;;5.30;2.30;;;13.00;82.20;;;;;;5032271;28;20096;-75
2021/05/16 09:01:48;;;;;;;3.35;2.10;;;13.20;82.10;;;;;;5032714;28;20050;-76
2021/05/16 09:04:35;;;;;;;3.45;1.85;;;13.40;81.50;;;;;;5015245;28;20048;-76
2021/05/16 09:07:03;;;;;;;4.25;2.53;;;13.70;81.00;;;;;;5032112;28;20036;-76
2021/05/16 09:09:34;;;;;;;4.65;2.40;;;13.80;80.30;;;;;;5014351;28;20046;-75
2021/05/16 09:12:04;;;;;;;5.38;2.47;;;13.70;80.20;;;;;;5014492;28;20037;-75
2021/05/16 09:14:47;;;;;;;5.78;2.60;;;13.70;80.50;;;;;;4998581;28;20088;-75
2021/05/16 09:17:34;;;;;;;3.95;2.17;;;13.90;80.60;;;;;;5015144;28;20033;-76
2021/05/16 09:20:09;;;;;;;5.25;2.28;;;14.20;80.00;;;;;;5014012;28;20038;-76
2021/05/16 09:22:43;;;;;;;3.35;2.10;;;14.40;79.40;;;;;;5016468;28;20038;-76
2021/05/16 09:25:18;;;;;;;4.22;1.92;;;14.50;79.00;;;;;;5032439;28;20034;-76
2021/05/16 09:27:54;;;;;;;5.47;2.55;;;14.50;79.00;;;;;;5012226;28;20034;-76
2021/05/16 09:30:23;;;;;;;4.63;2.40;;;14.40;79.10;;;;;;5032392;28;20464;-77
2021/05/16 09:32:53;;;;;;;5.38;2.80;;;14.30;79.40;;;;;;5014678;28;20046;-76
2021/05/16 09:35:34;;;;;;;3.70;2.33;;;14.30;79.20;;;;;;5013818;28;20136;-76
2021/05/16 09:38:20;;;;;;;4.30;2.58;;;14.30;79.60;;;;;;4999636;28;20034;-76
2021/05/16 09:40:49;;;;;;;3.38;2.20;;;14.30;79.70;;;;;;5014253;28;20042;-76
2021/05/16 09:43:20;;;;;;;2.90;2.10;;;14.30;79.60;;;;;;5032373;28;20037;-76
2021/05/16 09:46:07;;;;;;;4.55;2.42;;;14.50;79.40;;;;;;5014176;28;20045;-75
2021/05/16 09:48:42;;;;;;;4.65;2.47;;;14.50;78.80;;;;;;5018208;28;20045;-77
2021/05/16 09:51:30;;;;;;;4.05;1.90;;;14.70;78.80;;;;;;5014011;28;20049;-75
2021/05/16 09:54:03;;;;;;;2.83;2.00;;;14.90;78.50;;;;;;5031730;28;20045;-76
2021/05/16 09:56:34;;;;;;;2.85;1.63;;;15.10;78.00;;;;;;5014371;28;20099;-75
2021/05/16 09:59:02;;;;;;;3.93;1.77;;;15.10;77.80;;;;;;5013841;28;20045;-76
2021/05/16 10:01:29;;;;;;;2.00;1.40;;;15.20;77.80;;;;;;5032424;28;20276;-76
2021/05/16 10:03:57;;;;;;;3.20;1.65;;;15.20;77.70;;;;;;5030635;28;20511;-78
2021/05/16 10:06:23;;;;;;;6.93;2.30;;;15.40;77.40;;;;;;4996250;28;20091;-77
2021/05/16 10:08:49;;;;;;;4.13;1.80;;;15.30;76.70;;;;;;5013885;28;20067;-77
2021/05/16 10:11:17;;;;;;;3.33;1.70;;;15.30;76.70;;;;;;4981962;28;20048;-78
2021/05/16 10:13:52;;;;;;;3.03;1.63;;;15.20;77.00;;;;;;5014909;28;20041;-77
2021/05/16 10:16:19;;;;;;;3.10;1.52;;;15.10;77.20;;;;;;5031697;28;20103;-76
2021/05/16 10:18:47;;;;;;;4.40;1.70;;;15.20;77.40;;;;;;5014293;28;20041;-76
2021/05/16 10:21:13;;;;;;;3.47;1.45;;;15.50;77.20;;;;;;5014275;28;20044;-76
2021/05/16 10:23:40;;;;;;;1.77;1.35;;;15.60;76.60;;;;;;5031661;28;20145;-78
2021/05/16 10:26:25;;;;;;;2.45;1.25;;;15.70;76.40;;;;;;5031935;28;20475;-76
2021/05/16 10:28:55;;;;;;;2.95;1.48;;;15.70;75.90;;;;;;5014378;28;20041;-76
2021/05/16 10:31:53;;;;;;;1.83;1.35;;;15.60;75.90;;;;;;4998001;28;20044;-77
2021/05/16 10:34:38;;;;;;;2.05;1.20;;;15.50;76.20;;;;;;5032601;28;20352;-78
2021/05/16 10:37:04;;;;;;;1.80;1.25;;;15.60;76.50;;;;;;5034056;28;20046;-78
2021/05/16 10:39:49;;;;;;;2.33;1.00;;;15.60;76.50;;;;;;5013978;28;20510;-76
2021/05/16 10:42:21;;;;;;;1.77;0.90;;;15.60;76.20;;;;;;5031245;28;20057;-76
2021/05/16 10:45:01;;;;;;;3.00;1.10;;;15.50;76.10;;;;;;5014992;28;20076;-77
2021/05/16 10:47:47;;;;;;;1.30;0.85;;;15.50;76.30;;;;;;5016976;28;20045;-77
2021/05/16 10:50:34;;;;;;;1.35;0.60;;;15.50;76.50;;;;;;5032230;28;20087;-76
2021/05/16 10:53:12;;;;;;;1.33;0.63;;;15.50;76.50;;;;;;5013620;28;20057;-77
2021/05/16 10:55:42;;;;;;;1.30;0.70;;;15.70;76.50;;;;;;5031658;28;20097;-75
2021/05/16 10:58:28;;;;;;;0.75;0.70;;;15.90;76.00;;;;;;5012006;28;20097;-76
2021/05/16 11:01:03;;;;;;;0.85;0.50;;;15.90;75.50;;;;;;5015535;28;20025;-75
2021/05/16 11:03:43;;;;;;;0.50;0.50;;;15.90;75.60;;;;;;5012962;28;20048;-74
2021/05/16 11:06:09;;;;;;;2.00;0.95;;;15.90;75.70;;;;;;5013229;28;20041;-75
2021/05/16 11:08:59;;;;;;;1.25;0.70;;;15.80;75.80;;;;;;5013324;28;20491;-75
2021/05/16 11:11:31;;;;;;;0.80;0.60;;;15.80;76.00;;;;;;5017145;28;20468;-74
2021/05/16 11:13:57;;;;;;;2.55;1.10;;;16.10;75.80;;;;;;5013105;28;20076;-75
2021/05/16 11:16:23;;;;;;;1.42;0.70;;;16.30;75.00;;;;;;5009039;28;20060;-75
2021/05/16 11:18:49;;;;;;;1.38;0.73;;;16.30;74.60;;;;;;5015777;28;20100;-75
2021/05/16 11:21:14;;;;;;;1.35;0.70;;;16.30;74.60;;;;;;5016614;28;20121;-76
2021/05/16 11:23:44;;;;;;;0.60;0.60;;;16.30;74.80;;;;;;5016811;28;20464;-75
2021/05/16 11:26:13;;;;;;;0.55;0.55;;;16.30;74.90;;;;;;5017000;28;20545;-76
2021/05/16 11:28:55;;;;;;;0.82;0.70;;;16.40;74.80;;;;;;5018735;28;20053;-75
2021/05/16 11:31:25;;;;;;;1.45;0.68;;;16.40;74.50;;;;;;5018897;28;20045;-76
2021/05/16 11:33:53;;;;;;;1.25;0.80;;;16.60;74.30;;;;;;5037190;28;20549;-76
2021/05/16 11:36:22;;;;;;;0.90;0.63;;;16.60;74.20;;;;;;5035652;28;20041;-75
2021/05/16 11:38:52;;;;;;;1.20;0.60;;;16.50;74.30;;;;;;5001363;28;20445;-76
2021/05/16 11:41:41;;;;;;;1.55;0.70;;;16.30;74.60;;;;;;5017421;28;20390;-76
2021/05/16 11:44:10;;;;;;;1.48;0.90;;;16.10;75.70;;;;;;5034785;28;20022;-76
2021/05/16 11:46:41;;;;;;;1.40;1.02;;;15.80;75.70;;;;;;5033458;28;20041;-75
2021/05/16 11:49:08;;;;;;;;;;;15.30;76.10;;;;;;5017074;28;20033;-77
2021/05/16 11:51:34;;;;;;;0.93;0.52;;;14.90;77.20;;;;;;5033125;28;20275;-76
2021/05/16 11:54:06;;;;;;;0.57;0.57;;;14.50;78.10;;;;;;4999557;28;20044;-76
2021/05/16 11:56:39;;;;;;;0.30;0.30;;;14.20;78.80;;;;;;5016370;28;20506;-75
2021/05/16 11:59:05;;;;;;;0.63;0.40;;;13.90;79.40;;;;;;4999809;28;20065;-76
2021/05/16 12:01:37;;;;;;;0.30;0.30;;;13.70;79.80;;;;;;4999787;28;20049;-74
2021/05/16 12:04:05;;;;;;;0.70;0.30;;;13.70;80.10;;;;;;5016255;28;20061;-75
2021/05/16 12:06:41;;;;;;;0.30;0.30;;;13.70;80.00;;;;;;5033530;28;20038;-76
2021/05/16 12:09:10;;;;;;;0.20;0.20;;;13.70;80.00;;;;;;5033022;28;20087;-76
2021/05/16 12:11:37;;;;;;;0.30;0.30;;;13.80;79.70;;;;;;4999098;28;20469;-76
2021/05/16 12:14:07;;;;;;;0.90;0.28;;;13.90;79.50;;;;;;4999087;28;20491;-75
2021/05/16 12:16:34;;;;;;;0.82;0.32;;;14.00;79.10;;;;;;4999029;28;20065;-76
2021/05/16 12:19:00;;;;;;;0.35;0.30;;;14.30;78.80;;;;;;5015202;28;20138;-75
2021/05/16 12:21:26;;;;;;;0.52;0.30;;;14.50;78.30;;;;;;5015127;28;20049;-76
2021/05/16 12:23:59;;;;;;;0.40;0.40;;;14.70;77.90;;;;;;5015291;28;20044;-75
2021/05/16 12:26:27;;;;;;;0.20;0.20;;;14.90;77.30;;;;;;5012539;28;20140;-76
2021/05/16 12:28:54;;;;;;;0.60;0.43;;;15.00;76.90;;;;;;5032247;28;20048;-76
2021/05/16 12:31:21;;;;;;;0.43;0.40;;;15.20;76.50;;;;;;5015173;28;20128;-77
2021/05/16 12:33:51;;;;;;;0.77;0.32;;;15.30;76.30;;;;;;5015745;28;20061;-77
2021/05/16 12:36:17;;;;;;;0.73;0.50;;;15.50;75.80;;;;;;5002799;28;20065;-78
2021/05/16 12:38:47;;;;;;;0.40;0.40;;;15.60;75.60;;;;;;4996437;28;20496;-77
2021/05/16 12:41:15;;;;;;;0.30;0.30;;;15.60;75.60;;;;;;4999988;28;20045;-77
2021/05/16 12:43:41;;;;;;;0.20;0.20;;;15.80;75.60;;;;;;5017648;28;20061;-78
2021/05/16 12:46:07;;;;;;;1.33;0.40;;;15.90;75.40;;;;;;5018444;28;20376;-78
2021/05/16 12:48:34;;;;;;;0.40;0.25;;;16.00;75.20;;;;;;5015439;28;20490;-75
2021/05/16 12:51:00;;;;;;;0.70;0.50;;;16.10;75.20;;;;;;5014828;28;20088;-76